sensor_id;sensor_type;location;lat;lon;timestamp;P1;durP1;ratioP1;P2;durP2;ratioP2
17886;SDS011;9069;52.044;7.472;2022-11-24T00:01:04;11.27;;;3.47;;
17886;SDS011;9069;52.044;7.472;2022-11-24T00:03:36;12.25;;;3.97;;
17886;SDS011;9069;52.044;7.472;2022-11-24T00:06:07;12.35;;;4.03;;
17886;SDS011;9069;52.044;7.472;2022-11-24T00:08:36;9.63;;;3.60;;
17886;SDS011;9069;52.044;7.472;2022-11-24T00:11:07;13.05;;;3.25;;
17886;SDS011;9069;52.044;7.472;2022-11-24T00:13:36;13.85;;;3.83;;
17886;SDS011;9069;52.044;7.472;2022-11-24T00:16:17;10.30;;;3.22;;
17886;SDS011;9069;52.044;7.472;2022-11-24T00:18:45;14.32;;;2.88;;
17886;SDS011;9069;52.044;7.472;2022-11-24T00:21:14;12.98;;;2.97;;
17886;SDS011;9069;52.044;7.472;2022-11-24T00:23:42;9.75;;;3.22;;
17886;SDS011;9069;52.044;7.472;2022-11-24T00:26:13;12.85;;;3.65;;
17886;SDS011;9069;52.044;7.472;2022-11-24T00:28:51;13.80;;;2.75;;
17886;SDS011;9069;52.044;7.472;2022-11-24T00:31:24;23.08;;;5.65;;
17886;SDS011;9069;52.044;7.472;2022-11-24T00:33:57;13.55;;;3.50;;
17886;SDS011;9069;52.044;7.472;2022-11-24T00:36:26;12.65;;;3.28;;
17886;SDS011;9069;52.044;7.472;2022-11-24T00:38:58;10.10;;;3.53;;
17886;SDS011;9069;52.044;7.472;2022-11-24T00:41:26;14.25;;;3.78;;
17886;SDS011;9069;52.044;7.472;2022-11-24T00:43:53;13.23;;;4.15;;
17886;SDS011;9069;52.044;7.472;2022-11-24T00:46:21;24.00;;;3.78;;
17886;SDS011;9069;52.044;7.472;2022-11-24T00:48:48;17.45;;;4.80;;
17886;SDS011;9069;52.044;7.472;2022-11-24T00:51:16;12.50;;;4.72;;
17886;SDS011;9069;52.044;7.472;2022-11-24T00:53:45;11.50;;;4.28;;
17886;SDS011;9069;52.044;7.472;2022-11-24T00:56:12;13.80;;;6.20;;
17886;SDS011;9069;52.044;7.472;2022-11-24T00:58:39;10.80;;;5.95;;
17886;SDS011;9069;52.044;7.472;2022-11-24T01:01:17;17.05;;;7.20;;
17886;SDS011;9069;52.044;7.472;2022-11-24T01:03:51;17.63;;;6.32;;
17886;SDS011;9069;52.044;7.472;2022-11-24T01:06:21;15.63;;;6.63;;
17886;SDS011;9069;52.044;7.472;2022-11-24T01:08:50;18.77;;;7.05;;
17886;SDS011;9069;52.044;7.472;2022-11-24T01:11:30;19.05;;;6.60;;
17886;SDS011;9069;52.044;7.472;2022-11-24T01:14:17;13.05;;;5.90;;
17886;SDS011;9069;52.044;7.472;2022-11-24T01:16:45;12.98;;;5.68;;
17886;SDS011;9069;52.044;7.472;2022-11-24T01:19:11;18.55;;;6.90;;
17886;SDS011;9069;52.044;7.472;2022-11-24T01:21:38;20.58;;;7.10;;
17886;SDS011;9069;52.044;7.472;2022-11-24T01:24:05;17.92;;;5.25;;
17886;SDS011;9069;52.044;7.472;2022-11-24T01:26:32;13.00;;;5.97;;
17886;SDS011;9069;52.044;7.472;2022-11-24T01:28:58;14.02;;;5.72;;
17886;SDS011;9069;52.044;7.472;2022-11-24T01:31:25;16.02;;;6.32;;
17886;SDS011;9069;52.044;7.472;2022-11-24T01:33:52;19.77;;;5.68;;
17886;SDS011;9069;52.044;7.472;2022-11-24T01:36:19;16.73;;;5.78;;
17886;SDS011;9069;52.044;7.472;2022-11-24T01:38:47;14.27;;;4.93;;
17886;SDS011;9069;52.044;7.472;2022-11-24T01:41:17;18.50;;;5.50;;
17886;SDS011;9069;52.044;7.472;2022-11-24T01:43:47;15.35;;;5.28;;
17886;SDS011;9069;52.044;7.472;2022-11-24T01:49:03;11.55;;;3.70;;
17886;SDS011;9069;52.044;7.472;2022-11-24T01:51:47;13.65;;;3.38;;
17886;SDS011;9069;52.044;7.472;2022-11-24T01:54:21;16.25;;;4.00;;
17886;SDS011;9069;52.044;7.472;2022-11-24T01:56:52;14.55;;;4.60;;
17886;SDS011;9069;52.044;7.472;2022-11-24T01:59:23;13.50;;;4.47;;
17886;SDS011;9069;52.044;7.472;2022-11-24T02:01:51;15.10;;;4.38;;
17886;SDS011;9069;52.044;7.472;2022-11-24T02:04:19;11.40;;;4.85;;
17886;SDS011;9069;52.044;7.472;2022-11-24T02:06:50;16.30;;;5.43;;
17886;SDS011;9069;52.044;7.472;2022-11-24T02:09:23;13.63;;;4.95;;
17886;SDS011;9069;52.044;7.472;2022-11-24T02:11:54;15.07;;;5.32;;
17886;SDS011;9069;52.044;7.472;2022-11-24T02:14:22;11.43;;;4.25;;
17886;SDS011;9069;52.044;7.472;2022-11-24T02:16:51;15.40;;;5.38;;
17886;SDS011;9069;52.044;7.472;2022-11-24T02:19:27;14.13;;;5.75;;
17886;SDS011;9069;52.044;7.472;2022-11-24T02:22:20;14.43;;;4.43;;
17886;SDS011;9069;52.044;7.472;2022-11-24T02:25:43;13.18;;;3.92;;
17886;SDS011;9069;52.044;7.472;2022-11-24T02:27:55;9.40;;;3.78;;
17886;SDS011;9069;52.044;7.472;2022-11-24T02:30:24;13.30;;;5.72;;
17886;SDS011;9069;52.044;7.472;2022-11-24T02:32:51;16.25;;;5.35;;
17886;SDS011;9069;52.044;7.472;2022-11-24T02:35:18;19.45;;;4.57;;
17886;SDS011;9069;52.044;7.472;2022-11-24T02:37:45;15.38;;;3.70;;
17886;SDS011;9069;52.044;7.472;2022-11-24T02:40:13;12.07;;;3.92;;
17886;SDS011;9069;52.044;7.472;2022-11-24T02:42:41;12.75;;;3.88;;
17886;SDS011;9069;52.044;7.472;2022-11-24T02:45:11;16.88;;;3.90;;
17886;SDS011;9069;52.044;7.472;2022-11-24T02:47:39;14.18;;;4.38;;
17886;SDS011;9069;52.044;7.472;2022-11-24T02:50:06;16.17;;;4.15;;
17886;SDS011;9069;52.044;7.472;2022-11-24T02:52:33;16.00;;;4.25;;
17886;SDS011;9069;52.044;7.472;2022-11-24T02:55:00;12.57;;;3.40;;
17886;SDS011;9069;52.044;7.472;2022-11-24T02:57:27;10.95;;;3.50;;
17886;SDS011;9069;52.044;7.472;2022-11-24T02:59:53;12.73;;;3.05;;
17886;SDS011;9069;52.044;7.472;2022-11-24T03:02:20;17.75;;;2.92;;
17886;SDS011;9069;52.044;7.472;2022-11-24T03:04:47;9.13;;;2.97;;
17886;SDS011;9069;52.044;7.472;2022-11-24T03:07:14;10.93;;;2.70;;
17886;SDS011;9069;52.044;7.472;2022-11-24T03:09:41;11.10;;;2.70;;
17886;SDS011;9069;52.044;7.472;2022-11-24T03:12:07;13.80;;;2.55;;
17886;SDS011;9069;52.044;7.472;2022-11-24T03:14:34;12.32;;;2.50;;
17886;SDS011;9069;52.044;7.472;2022-11-24T03:17:01;13.63;;;2.35;;
17886;SDS011;9069;52.044;7.472;2022-11-24T03:19:29;13.68;;;2.65;;
17886;SDS011;9069;52.044;7.472;2022-11-24T03:21:55;13.48;;;3.15;;
17886;SDS011;9069;52.044;7.472;2022-11-24T03:24:22;21.55;;;3.47;;
17886;SDS011;9069;52.044;7.472;2022-11-24T03:26:49;10.07;;;2.40;;
17886;SDS011;9069;52.044;7.472;2022-11-24T03:29:16;12.55;;;2.45;;
17886;SDS011;9069;52.044;7.472;2022-11-24T03:31:43;11.27;;;2.38;;
17886;SDS011;9069;52.044;7.472;2022-11-24T03:34:09;14.07;;;2.65;;
17886;SDS011;9069;52.044;7.472;2022-11-24T03:36:36;11.45;;;2.53;;
17886;SDS011;9069;52.044;7.472;2022-11-24T03:39:03;14.00;;;2.40;;
17886;SDS011;9069;52.044;7.472;2022-11-24T03:41:30;15.80;;;2.78;;
17886;SDS011;9069;52.044;7.472;2022-11-24T03:43:56;10.15;;;2.00;;
17886;SDS011;9069;52.044;7.472;2022-11-24T03:46:23;8.30;;;2.22;;
17886;SDS011;9069;52.044;7.472;2022-11-24T03:48:50;13.23;;;2.60;;
17886;SDS011;9069;52.044;7.472;2022-11-24T03:51:17;13.02;;;2.10;;
17886;SDS011;9069;52.044;7.472;2022-11-24T03:53:43;11.25;;;2.28;;
17886;SDS011;9069;52.044;7.472;2022-11-24T03:56:10;8.90;;;2.63;;
17886;SDS011;9069;52.044;7.472;2022-11-24T03:58:37;8.75;;;2.30;;
17886;SDS011;9069;52.044;7.472;2022-11-24T04:01:04;13.02;;;2.53;;
17886;SDS011;9069;52.044;7.472;2022-11-24T04:03:30;15.45;;;2.85;;
17886;SDS011;9069;52.044;7.472;2022-11-24T04:05:57;12.40;;;2.67;;
17886;SDS011;9069;52.044;7.472;2022-11-24T04:08:24;11.32;;;2.63;;
17886;SDS011;9069;52.044;7.472;2022-11-24T04:10:51;13.93;;;2.42;;
17886;SDS011;9069;52.044;7.472;2022-11-24T04:13:19;12.57;;;2.17;;
17886;SDS011;9069;52.044;7.472;2022-11-24T04:15:49;11.45;;;2.15;;
17886;SDS011;9069;52.044;7.472;2022-11-24T04:18:16;12.75;;;3.67;;
17886;SDS011;9069;52.044;7.472;2022-11-24T04:20:43;12.93;;;2.28;;
17886;SDS011;9069;52.044;7.472;2022-11-24T04:23:10;10.55;;;2.70;;
17886;SDS011;9069;52.044;7.472;2022-11-24T04:25:37;11.88;;;2.72;;
17886;SDS011;9069;52.044;7.472;2022-11-24T04:28:04;10.52;;;2.22;;
17886;SDS011;9069;52.044;7.472;2022-11-24T04:30:31;15.20;;;2.85;;
17886;SDS011;9069;52.044;7.472;2022-11-24T04:32:58;12.48;;;2.65;;
17886;SDS011;9069;52.044;7.472;2022-11-24T04:35:25;9.63;;;2.22;;
17886;SDS011;9069;52.044;7.472;2022-11-24T04:37:51;10.48;;;2.53;;
17886;SDS011;9069;52.044;7.472;2022-11-24T04:40:18;13.10;;;3.70;;
17886;SDS011;9069;52.044;7.472;2022-11-24T04:42:52;12.50;;;2.78;;
17886;SDS011;9069;52.044;7.472;2022-11-24T04:45:20;11.77;;;2.88;;
17886;SDS011;9069;52.044;7.472;2022-11-24T04:47:48;14.60;;;2.58;;
17886;SDS011;9069;52.044;7.472;2022-11-24T04:50:15;13.77;;;2.50;;
17886;SDS011;9069;52.044;7.472;2022-11-24T04:52:42;11.30;;;3.25;;
17886;SDS011;9069;52.044;7.472;2022-11-24T04:55:09;15.48;;;3.47;;
17886;SDS011;9069;52.044;7.472;2022-11-24T04:57:35;14.25;;;4.07;;
17886;SDS011;9069;52.044;7.472;2022-11-24T05:00:03;17.00;;;4.22;;
17886;SDS011;9069;52.044;7.472;2022-11-24T05:02:30;9.43;;;4.40;;
17886;SDS011;9069;52.044;7.472;2022-11-24T05:04:56;15.90;;;4.28;;
17886;SDS011;9069;52.044;7.472;2022-11-24T05:07:23;11.88;;;3.10;;
17886;SDS011;9069;52.044;7.472;2022-11-24T05:09:50;14.60;;;3.13;;
17886;SDS011;9069;52.044;7.472;2022-11-24T05:12:35;7.82;;;3.00;;
17886;SDS011;9069;52.044;7.472;2022-11-24T05:15:02;18.83;;;3.72;;
17886;SDS011;9069;52.044;7.472;2022-11-24T05:17:30;15.18;;;2.85;;
17886;SDS011;9069;52.044;7.472;2022-11-24T05:19:58;12.70;;;2.92;;
17886;SDS011;9069;52.044;7.472;2022-11-24T05:22:27;18.13;;;2.95;;
17886;SDS011;9069;52.044;7.472;2022-11-24T05:24:54;9.23;;;2.38;;
17886;SDS011;9069;52.044;7.472;2022-11-24T05:27:21;13.57;;;3.00;;
17886;SDS011;9069;52.044;7.472;2022-11-24T05:29:48;14.88;;;2.83;;
17886;SDS011;9069;52.044;7.472;2022-11-24T05:32:15;10.55;;;2.72;;
17886;SDS011;9069;52.044;7.472;2022-11-24T05:34:41;16.55;;;2.90;;
17886;SDS011;9069;52.044;7.472;2022-11-24T05:37:08;9.15;;;2.25;;
17886;SDS011;9069;52.044;7.472;2022-11-24T05:39:35;16.45;;;2.70;;
17886;SDS011;9069;52.044;7.472;2022-11-24T05:42:03;14.18;;;2.67;;
17886;SDS011;9069;52.044;7.472;2022-11-24T05:44:50;12.25;;;2.30;;
17886;SDS011;9069;52.044;7.472;2022-11-24T05:47:17;16.08;;;2.90;;
17886;SDS011;9069;52.044;7.472;2022-11-24T05:49:44;17.55;;;3.65;;
17886;SDS011;9069;52.044;7.472;2022-11-24T05:52:11;18.10;;;3.70;;
17886;SDS011;9069;52.044;7.472;2022-11-24T05:54:38;11.52;;;3.13;;
17886;SDS011;9069;52.044;7.472;2022-11-24T05:57:05;21.67;;;4.50;;
17886;SDS011;9069;52.044;7.472;2022-11-24T05:59:31;19.42;;;3.13;;
17886;SDS011;9069;52.044;7.472;2022-11-24T06:01:58;9.98;;;3.30;;
17886;SDS011;9069;52.044;7.472;2022-11-24T06:04:26;12.60;;;3.80;;
17886;SDS011;9069;52.044;7.472;2022-11-24T06:06:52;17.02;;;4.78;;
17886;SDS011;9069;52.044;7.472;2022-11-24T06:09:19;21.08;;;6.22;;
17886;SDS011;9069;52.044;7.472;2022-11-24T06:11:46;19.25;;;4.47;;
17886;SDS011;9069;52.044;7.472;2022-11-24T06:14:13;16.95;;;3.70;;
17886;SDS011;9069;52.044;7.472;2022-11-24T06:16:40;15.80;;;3.70;;
17886;SDS011;9069;52.044;7.472;2022-11-24T06:19:07;16.83;;;4.30;;
17886;SDS011;9069;52.044;7.472;2022-11-24T06:21:35;17.13;;;5.68;;
17886;SDS011;9069;52.044;7.472;2022-11-24T06:24:02;19.88;;;4.93;;
17886;SDS011;9069;52.044;7.472;2022-11-24T06:26:28;16.08;;;5.38;;
17886;SDS011;9069;52.044;7.472;2022-11-24T06:28:55;12.48;;;4.95;;
17886;SDS011;9069;52.044;7.472;2022-11-24T06:31:22;15.77;;;4.20;;
17886;SDS011;9069;52.044;7.472;2022-11-24T06:33:49;17.85;;;4.03;;
17886;SDS011;9069;52.044;7.472;2022-11-24T06:36:15;16.20;;;3.63;;
17886;SDS011;9069;52.044;7.472;2022-11-24T06:38:42;19.30;;;3.28;;
17886;SDS011;9069;52.044;7.472;2022-11-24T06:41:12;14.00;;;2.47;;
17886;SDS011;9069;52.044;7.472;2022-11-24T06:43:40;13.77;;;3.22;;
17886;SDS011;9069;52.044;7.472;2022-11-24T06:46:07;16.70;;;3.58;;
17886;SDS011;9069;52.044;7.472;2022-11-24T06:48:34;15.77;;;2.72;;
17886;SDS011;9069;52.044;7.472;2022-11-24T06:51:01;14.88;;;3.83;;
17886;SDS011;9069;52.044;7.472;2022-11-24T06:53:33;13.65;;;2.90;;
17886;SDS011;9069;52.044;7.472;2022-11-24T06:56:04;12.75;;;2.97;;
17886;SDS011;9069;52.044;7.472;2022-11-24T06:58:41;13.57;;;2.95;;
17886;SDS011;9069;52.044;7.472;2022-11-24T07:01:13;11.32;;;2.50;;
17886;SDS011;9069;52.044;7.472;2022-11-24T07:03:41;14.55;;;2.83;;
17886;SDS011;9069;52.044;7.472;2022-11-24T07:06:07;16.38;;;2.58;;
17886;SDS011;9069;52.044;7.472;2022-11-24T07:08:34;14.15;;;3.00;;
17886;SDS011;9069;52.044;7.472;2022-11-24T07:11:05;15.88;;;2.60;;
17886;SDS011;9069;52.044;7.472;2022-11-24T07:13:32;13.60;;;3.10;;
17886;SDS011;9069;52.044;7.472;2022-11-24T07:15:59;14.88;;;3.08;;
17886;SDS011;9069;52.044;7.472;2022-11-24T07:18:46;16.50;;;3.20;;
17886;SDS011;9069;52.044;7.472;2022-11-24T07:21:14;12.13;;;2.83;;
17886;SDS011;9069;52.044;7.472;2022-11-24T07:23:41;15.95;;;3.40;;
17886;SDS011;9069;52.044;7.472;2022-11-24T07:26:09;12.30;;;2.90;;
17886;SDS011;9069;52.044;7.472;2022-11-24T07:28:36;19.55;;;2.97;;
17886;SDS011;9069;52.044;7.472;2022-11-24T07:31:03;18.15;;;3.03;;
17886;SDS011;9069;52.044;7.472;2022-11-24T07:33:34;10.68;;;2.72;;
17886;SDS011;9069;52.044;7.472;2022-11-24T07:36:02;14.60;;;2.78;;
17886;SDS011;9069;52.044;7.472;2022-11-24T07:38:30;15.93;;;2.72;;
17886;SDS011;9069;52.044;7.472;2022-11-24T07:41:01;13.00;;;3.17;;
17886;SDS011;9069;52.044;7.472;2022-11-24T07:43:33;12.65;;;3.22;;
17886;SDS011;9069;52.044;7.472;2022-11-24T07:46:01;14.82;;;3.30;;
17886;SDS011;9069;52.044;7.472;2022-11-24T07:48:28;11.73;;;2.67;;
17886;SDS011;9069;52.044;7.472;2022-11-24T07:50:57;12.25;;;2.40;;
17886;SDS011;9069;52.044;7.472;2022-11-24T07:53:24;15.52;;;3.55;;
17886;SDS011;9069;52.044;7.472;2022-11-24T07:55:52;16.05;;;2.78;;
17886;SDS011;9069;52.044;7.472;2022-11-24T07:58:25;10.52;;;2.97;;
17886;SDS011;9069;52.044;7.472;2022-11-24T08:00:58;18.90;;;3.88;;
17886;SDS011;9069;52.044;7.472;2022-11-24T08:03:25;17.10;;;3.47;;
17886;SDS011;9069;52.044;7.472;2022-11-24T08:06:01;13.93;;;3.58;;
17886;SDS011;9069;52.044;7.472;2022-11-24T08:08:47;12.82;;;3.47;;
17886;SDS011;9069;52.044;7.472;2022-11-24T08:11:15;9.57;;;3.58;;
17886;SDS011;9069;52.044;7.472;2022-11-24T08:13:42;13.25;;;3.70;;
17886;SDS011;9069;52.044;7.472;2022-11-24T08:16:14;12.88;;;3.90;;
17886;SDS011;9069;52.044;7.472;2022-11-24T08:18:43;12.57;;;4.45;;
17886;SDS011;9069;52.044;7.472;2022-11-24T08:21:13;13.25;;;4.05;;
17886;SDS011;9069;52.044;7.472;2022-11-24T08:23:40;10.68;;;4.00;;
17886;SDS011;9069;52.044;7.472;2022-11-24T08:26:09;18.30;;;4.53;;
17886;SDS011;9069;52.044;7.472;2022-11-24T08:28:39;14.07;;;3.67;;
17886;SDS011;9069;52.044;7.472;2022-11-24T08:31:11;14.30;;;3.25;;
17886;SDS011;9069;52.044;7.472;2022-11-24T08:33:39;14.65;;;3.10;;
17886;SDS011;9069;52.044;7.472;2022-11-24T08:36:07;13.95;;;3.55;;
17886;SDS011;9069;52.044;7.472;2022-11-24T08:38:38;14.20;;;3.50;;
17886;SDS011;9069;52.044;7.472;2022-11-24T08:41:09;14.45;;;3.72;;
17886;SDS011;9069;52.044;7.472;2022-11-24T08:43:38;14.90;;;3.00;;
17886;SDS011;9069;52.044;7.472;2022-11-24T08:46:06;14.43;;;3.55;;
17886;SDS011;9069;52.044;7.472;2022-11-24T08:48:34;13.15;;;2.78;;
17886;SDS011;9069;52.044;7.472;2022-11-24T08:51:05;12.77;;;3.70;;
17886;SDS011;9069;52.044;7.472;2022-11-24T08:53:34;18.02;;;2.92;;
17886;SDS011;9069;52.044;7.472;2022-11-24T08:56:00;13.32;;;2.53;;
17886;SDS011;9069;52.044;7.472;2022-11-24T08:58:28;11.52;;;2.08;;
17886;SDS011;9069;52.044;7.472;2022-11-24T09:01:02;9.35;;;2.50;;
17886;SDS011;9069;52.044;7.472;2022-11-24T09:03:30;15.80;;;3.28;;
17886;SDS011;9069;52.044;7.472;2022-11-24T09:05:57;13.32;;;2.95;;
17886;SDS011;9069;52.044;7.472;2022-11-24T09:08:23;11.18;;;2.58;;
17886;SDS011;9069;52.044;7.472;2022-11-24T09:10:50;8.25;;;2.17;;
17886;SDS011;9069;52.044;7.472;2022-11-24T09:13:17;9.15;;;2.10;;
17886;SDS011;9069;52.044;7.472;2022-11-24T09:15:44;11.23;;;2.05;;
17886;SDS011;9069;52.044;7.472;2022-11-24T09:18:10;9.57;;;2.38;;
17886;SDS011;9069;52.044;7.472;2022-11-24T09:20:37;6.97;;;2.10;;
17886;SDS011;9069;52.044;7.472;2022-11-24T09:23:04;13.25;;;2.40;;
17886;SDS011;9069;52.044;7.472;2022-11-24T09:25:30;9.00;;;2.38;;
17886;SDS011;9069;52.044;7.472;2022-11-24T09:27:58;8.75;;;2.90;;
17886;SDS011;9069;52.044;7.472;2022-11-24T09:30:25;12.32;;;3.03;;
17886;SDS011;9069;52.044;7.472;2022-11-24T09:32:53;8.15;;;2.75;;
17886;SDS011;9069;52.044;7.472;2022-11-24T09:35:21;12.48;;;2.85;;
17886;SDS011;9069;52.044;7.472;2022-11-24T09:37:48;8.07;;;2.78;;
17886;SDS011;9069;52.044;7.472;2022-11-24T09:40:15;10.40;;;2.83;;
17886;SDS011;9069;52.044;7.472;2022-11-24T09:42:52;11.73;;;2.85;;
17886;SDS011;9069;52.044;7.472;2022-11-24T09:45:20;8.18;;;2.97;;
17886;SDS011;9069;52.044;7.472;2022-11-24T09:48:25;11.38;;;3.60;;
17886;SDS011;9069;52.044;7.472;2022-11-24T09:50:56;8.68;;;2.83;;
17886;SDS011;9069;52.044;7.472;2022-11-24T09:56:28;10.02;;;3.28;;
17886;SDS011;9069;52.044;7.472;2022-11-24T09:58:59;8.63;;;2.78;;
17886;SDS011;9069;52.044;7.472;2022-11-24T10:01:41;9.73;;;3.15;;
17886;SDS011;9069;52.044;7.472;2022-11-24T10:12:35;8.30;;;3.08;;
17886;SDS011;9069;52.044;7.472;2022-11-24T10:23:44;7.78;;;3.38;;
17886;SDS011;9069;52.044;7.472;2022-11-24T10:26:36;12.48;;;3.30;;
17886;SDS011;9069;52.044;7.472;2022-11-24T10:29:12;16.13;;;4.22;;
17886;SDS011;9069;52.044;7.472;2022-11-24T10:31:46;8.88;;;4.30;;
17886;SDS011;9069;52.044;7.472;2022-11-24T10:34:24;7.43;;;3.67;;
17886;SDS011;9069;52.044;7.472;2022-11-24T10:39:43;13.65;;;3.40;;
17886;SDS011;9069;52.044;7.472;2022-11-24T10:42:29;13.43;;;3.28;;
17886;SDS011;9069;52.044;7.472;2022-11-24T10:45:13;7.88;;;3.15;;
17886;SDS011;9069;52.044;7.472;2022-11-24T10:47:42;8.05;;;3.95;;
17886;SDS011;9069;52.044;7.472;2022-11-24T10:52:47;10.00;;;3.63;;
17886;SDS011;9069;52.044;7.472;2022-11-24T10:55:16;7.75;;;3.67;;
17886;SDS011;9069;52.044;7.472;2022-11-24T10:57:43;8.05;;;3.15;;
17886;SDS011;9069;52.044;7.472;2022-11-24T11:02:52;11.77;;;3.20;;
17886;SDS011;9069;52.044;7.472;2022-11-24T11:05:43;6.38;;;3.00;;
17886;SDS011;9069;52.044;7.472;2022-11-24T11:10:51;6.55;;;2.80;;
17886;SDS011;9069;52.044;7.472;2022-11-24T11:16:39;7.72;;;2.83;;
17886;SDS011;9069;52.044;7.472;2022-11-24T11:22:24;11.68;;;3.15;;
17886;SDS011;9069;52.044;7.472;2022-11-24T11:27:31;8.27;;;2.80;;
17886;SDS011;9069;52.044;7.472;2022-11-24T11:33:07;7.07;;;3.25;;
17886;SDS011;9069;52.044;7.472;2022-11-24T11:36:08;10.73;;;3.22;;
17886;SDS011;9069;52.044;7.472;2022-11-24T11:38:36;13.00;;;3.30;;
17886;SDS011;9069;52.044;7.472;2022-11-24T11:41:04;9.20;;;3.33;;
17886;SDS011;9069;52.044;7.472;2022-11-24T11:43:36;17.45;;;3.35;;
17886;SDS011;9069;52.044;7.472;2022-11-24T11:46:10;7.47;;;2.58;;
17886;SDS011;9069;52.044;7.472;2022-11-24T11:48:39;9.60;;;2.85;;
17886;SDS011;9069;52.044;7.472;2022-11-24T11:54:04;11.02;;;2.53;;
17886;SDS011;9069;52.044;7.472;2022-11-24T12:00:15;5.60;;;2.10;;
17886;SDS011;9069;52.044;7.472;2022-11-24T12:05:59;6.65;;;1.92;;
17886;SDS011;9069;52.044;7.472;2022-11-24T12:14:13;11.10;;;2.13;;
17886;SDS011;9069;52.044;7.472;2022-11-24T12:19:40;8.88;;;2.10;;
17886;SDS011;9069;52.044;7.472;2022-11-24T12:25:41;5.70;;;1.67;;
17886;SDS011;9069;52.044;7.472;2022-11-24T12:28:58;9.68;;;1.98;;
17886;SDS011;9069;52.044;7.472;2022-11-24T12:40:04;9.50;;;2.08;;
17886;SDS011;9069;52.044;7.472;2022-11-24T12:45:43;8.48;;;1.90;;
17886;SDS011;9069;52.044;7.472;2022-11-24T12:50:56;5.75;;;2.25;;
17886;SDS011;9069;52.044;7.472;2022-11-24T12:53:26;4.50;;;1.92;;
17886;SDS011;9069;52.044;7.472;2022-11-24T12:56:06;8.77;;;1.80;;
17886;SDS011;9069;52.044;7.472;2022-11-24T12:58:40;7.50;;;1.95;;
17886;SDS011;9069;52.044;7.472;2022-11-24T13:09:15;9.35;;;2.33;;
17886;SDS011;9069;52.044;7.472;2022-11-24T13:11:44;5.47;;;2.30;;
17886;SDS011;9069;52.044;7.472;2022-11-24T13:14:17;8.38;;;1.70;;
17886;SDS011;9069;52.044;7.472;2022-11-24T13:19:40;5.07;;;1.40;;
17886;SDS011;9069;52.044;7.472;2022-11-24T13:24:35;4.15;;;1.23;;
17886;SDS011;9069;52.044;7.472;2022-11-24T13:27:38;14.48;;;2.03;;
17886;SDS011;9069;52.044;7.472;2022-11-24T13:30:51;9.27;;;1.77;;
17886;SDS011;9069;52.044;7.472;2022-11-24T13:33:29;7.20;;;2.10;;
17886;SDS011;9069;52.044;7.472;2022-11-24T13:49:43;11.73;;;1.92;;
17886;SDS011;9069;52.044;7.472;2022-11-24T14:02:49;6.72;;;1.90;;
17886;SDS011;9069;52.044;7.472;2022-11-24T14:05:25;11.05;;;2.17;;
17886;SDS011;9069;52.044;7.472;2022-11-24T14:08:02;7.15;;;1.88;;
17886;SDS011;9069;52.044;7.472;2022-11-24T14:10:32;10.50;;;1.90;;
17886;SDS011;9069;52.044;7.472;2022-11-24T14:16:03;11.20;;;2.10;;
17886;SDS011;9069;52.044;7.472;2022-11-24T14:18:36;8.57;;;2.08;;
17886;SDS011;9069;52.044;7.472;2022-11-24T14:23:50;4.40;;;1.73;;
17886;SDS011;9069;52.044;7.472;2022-11-24T14:26:35;9.68;;;1.70;;
17886;SDS011;9069;52.044;7.472;2022-11-24T14:29:13;9.52;;;1.88;;
17886;SDS011;9069;52.044;7.472;2022-11-24T14:31:42;9.10;;;1.90;;
17886;SDS011;9069;52.044;7.472;2022-11-24T14:34:20;6.80;;;2.03;;
17886;SDS011;9069;52.044;7.472;2022-11-24T14:36:49;7.03;;;1.63;;
17886;SDS011;9069;52.044;7.472;2022-11-24T14:39:17;11.18;;;2.25;;
17886;SDS011;9069;52.044;7.472;2022-11-24T14:42:04;11.45;;;2.00;;
17886;SDS011;9069;52.044;7.472;2022-11-24T14:47:14;10.57;;;2.15;;
17886;SDS011;9069;52.044;7.472;2022-11-24T14:49:57;8.10;;;4.00;;
17886;SDS011;9069;52.044;7.472;2022-11-24T14:52:32;10.43;;;5.90;;
17886;SDS011;9069;52.044;7.472;2022-11-24T14:55:00;16.45;;;6.72;;
17886;SDS011;9069;52.044;7.472;2022-11-24T14:57:46;15.32;;;6.25;;
17886;SDS011;9069;52.044;7.472;2022-11-24T15:00:18;9.70;;;4.55;;
17886;SDS011;9069;52.044;7.472;2022-11-24T15:02:54;11.65;;;5.35;;
17886;SDS011;9069;52.044;7.472;2022-11-24T15:05:55;11.98;;;4.90;;
17886;SDS011;9069;52.044;7.472;2022-11-24T15:08:23;11.68;;;6.55;;
17886;SDS011;9069;52.044;7.472;2022-11-24T15:10:58;21.25;;;10.27;;
17886;SDS011;9069;52.044;7.472;2022-11-24T15:13:27;20.92;;;10.60;;
17886;SDS011;9069;52.044;7.472;2022-11-24T15:15:59;23.40;;;12.40;;
17886;SDS011;9069;52.044;7.472;2022-11-24T15:18:36;17.95;;;11.77;;
17886;SDS011;9069;52.044;7.472;2022-11-24T15:21:07;18.42;;;10.65;;
17886;SDS011;9069;52.044;7.472;2022-11-24T15:23:41;21.05;;;11.13;;
17886;SDS011;9069;52.044;7.472;2022-11-24T15:28:37;26.35;;;13.65;;
17886;SDS011;9069;52.044;7.472;2022-11-24T15:31:05;32.30;;;15.95;;
17886;SDS011;9069;52.044;7.472;2022-11-24T15:33:35;27.42;;;16.20;;
17886;SDS011;9069;52.044;7.472;2022-11-24T15:36:03;23.30;;;14.73;;
17886;SDS011;9069;52.044;7.472;2022-11-24T15:38:30;25.65;;;13.40;;
17886;SDS011;9069;52.044;7.472;2022-11-24T15:40:58;27.15;;;12.05;;
17886;SDS011;9069;52.044;7.472;2022-11-24T15:43:30;15.00;;;7.88;;
17886;SDS011;9069;52.044;7.472;2022-11-24T15:46:02;16.20;;;7.03;;
17886;SDS011;9069;52.044;7.472;2022-11-24T15:48:29;15.13;;;6.35;;
17886;SDS011;9069;52.044;7.472;2022-11-24T15:50:56;13.82;;;5.75;;
17886;SDS011;9069;52.044;7.472;2022-11-24T15:55:54;9.23;;;4.05;;
17886;SDS011;9069;52.044;7.472;2022-11-24T15:58:22;8.75;;;4.03;;
17886;SDS011;9069;52.044;7.472;2022-11-24T16:00:49;10.73;;;4.20;;
17886;SDS011;9069;52.044;7.472;2022-11-24T16:03:19;12.15;;;4.13;;
17886;SDS011;9069;52.044;7.472;2022-11-24T16:06:07;14.88;;;4.38;;
17886;SDS011;9069;52.044;7.472;2022-11-24T16:08:44;15.10;;;4.32;;
17886;SDS011;9069;52.044;7.472;2022-11-24T16:11:11;10.10;;;5.15;;
17886;SDS011;9069;52.044;7.472;2022-11-24T16:13:38;17.63;;;6.13;;
17886;SDS011;9069;52.044;7.472;2022-11-24T16:16:04;15.63;;;6.70;;
17886;SDS011;9069;52.044;7.472;2022-11-24T16:18:31;11.98;;;5.53;;
17886;SDS011;9069;52.044;7.472;2022-11-24T16:21:00;13.68;;;6.10;;
17886;SDS011;9069;52.044;7.472;2022-11-24T16:23:27;15.35;;;5.47;;
17886;SDS011;9069;52.044;7.472;2022-11-24T16:25:53;13.98;;;4.63;;
17886;SDS011;9069;52.044;7.472;2022-11-24T16:28:20;15.90;;;4.20;;
17886;SDS011;9069;52.044;7.472;2022-11-24T16:30:47;8.07;;;2.97;;
17886;SDS011;9069;52.044;7.472;2022-11-24T16:33:15;9.35;;;3.20;;
17886;SDS011;9069;52.044;7.472;2022-11-24T16:35:42;10.93;;;3.05;;
17886;SDS011;9069;52.044;7.472;2022-11-24T16:38:13;13.30;;;2.92;;
17886;SDS011;9069;52.044;7.472;2022-11-24T16:40:49;13.52;;;3.05;;
17886;SDS011;9069;52.044;7.472;2022-11-24T16:43:17;12.32;;;3.47;;
17886;SDS011;9069;52.044;7.472;2022-11-24T16:45:44;13.18;;;4.38;;
17886;SDS011;9069;52.044;7.472;2022-11-24T16:48:11;11.45;;;3.83;;
17886;SDS011;9069;52.044;7.472;2022-11-24T16:50:38;17.85;;;3.95;;
17886;SDS011;9069;52.044;7.472;2022-11-24T16:53:04;10.23;;;3.22;;
17886;SDS011;9069;52.044;7.472;2022-11-24T16:55:31;11.20;;;3.13;;
17886;SDS011;9069;52.044;7.472;2022-11-24T16:57:58;8.50;;;2.88;;
17886;SDS011;9069;52.044;7.472;2022-11-24T17:00:24;12.98;;;3.50;;
17886;SDS011;9069;52.044;7.472;2022-11-24T17:02:51;11.40;;;4.07;;
17886;SDS011;9069;52.044;7.472;2022-11-24T17:05:18;9.68;;;3.33;;
17886;SDS011;9069;52.044;7.472;2022-11-24T17:07:44;14.77;;;3.97;;
17886;SDS011;9069;52.044;7.472;2022-11-24T17:10:11;7.55;;;3.05;;
17886;SDS011;9069;52.044;7.472;2022-11-24T17:12:37;16.90;;;4.10;;
17886;SDS011;9069;52.044;7.472;2022-11-24T17:15:06;12.82;;;3.53;;
17886;SDS011;9069;52.044;7.472;2022-11-24T17:17:52;10.68;;;2.92;;
17886;SDS011;9069;52.044;7.472;2022-11-24T17:20:39;14.07;;;2.90;;
17886;SDS011;9069;52.044;7.472;2022-11-24T17:23:06;11.00;;;3.03;;